createdAt,value
2019-05-09T00:05:25.449Z,22.70
2019-05-09T00:15:33.087Z,22.60
2019-05-09T00:25:38.238Z,22.50
2019-05-09T00:35:44.268Z,22.50
2019-05-09T00:46:08.605Z,22.50
2019-05-09T00:56:14.115Z,22.50
2019-05-09T01:06:20.622Z,22.50
2019-05-09T01:16:26.030Z,22.40
2019-05-09T01:26:33.343Z,22.40
2019-05-09T01:36:56.247Z,22.40
2019-05-09T01:47:03.706Z,22.40
2019-05-09T01:57:13.655Z,22.40
2019-05-09T02:07:18.394Z,22.40
2019-05-09T02:17:57.342Z,22.40
2019-05-09T02:27:50.422Z,22.30
2019-05-09T02:37:58.570Z,22.30
2019-05-09T02:48:03.265Z,22.30
2019-05-09T02:58:10.500Z,22.30
2019-05-09T03:08:18.980Z,22.30
2019-05-09T03:18:23.027Z,22.30
2019-05-09T03:28:49.207Z,22.30
2019-05-09T03:38:55.067Z,22.30
2019-05-09T03:49:01.920Z,22.30
2019-05-09T03:59:08.307Z,22.30
2019-05-09T04:09:13.862Z,22.30
2019-05-09T04:19:19.265Z,22.30
2019-05-09T04:29:24.619Z,22.30
2019-05-09T04:39:30.142Z,22.30
2019-05-09T04:49:40.885Z,22.40
2019-05-09T04:59:42.672Z,22.40
2019-05-09T05:09:48.451Z,22.40
2019-05-09T05:19:54.596Z,22.30
2019-05-09T05:30:01.894Z,22.30
2019-05-09T05:40:07.865Z,22.30
2019-05-09T05:50:13.643Z,22.30
2019-05-09T06:00:20.682Z,22.40
2019-05-09T06:10:28.783Z,22.30
2019-05-09T06:20:33.368Z,22.30
2019-05-09T06:30:41.172Z,22.30
2019-05-09T06:40:47.559Z,22.40
2019-05-09T06:50:53.069Z,22.40
2019-05-09T07:01:09.818Z,22.30
2019-05-09T07:11:15.301Z,22.30
2019-05-09T07:21:20.873Z,22.30
2019-05-09T07:31:51.680Z,22.30
2019-05-09T07:41:58.305Z,22.50
2019-05-09T07:52:06.786Z,22.60
2019-05-09T08:02:11.248Z,22.60
2019-05-09T08:12:17.908Z,22.60
2019-05-09T08:22:31.361Z,22.70
2019-05-09T08:32:34.818Z,22.80
2019-05-09T08:42:40.376Z,22.90
2019-05-09T08:52:48.050Z,23.00
2019-05-09T09:02:53.134Z,23.00
2019-05-09T09:12:58.568Z,23.00
2019-05-09T09:23:04.029Z,23.10
2019-05-09T09:33:13.752Z,23.10
2019-05-09T09:43:17.689Z,23.10
2019-05-09T09:53:23.593Z,22.80
2019-05-09T10:03:29.708Z,22.90
2019-05-09T10:13:37.382Z,23.00
2019-05-09T10:23:42.326Z,23.00
2019-05-09T10:33:48.332Z,23.00
2019-05-09T10:44:01.060Z,23.10
2019-05-09T10:54:08.188Z,23.10
2019-05-09T11:04:13.737Z,23.20
2019-05-09T11:14:32.519Z,23.20
2019-05-09T11:24:41.545Z,23.20
2019-05-09T11:34:34.134Z,23.20
2019-05-09T11:44:39.920Z,23.20
2019-05-09T11:54:45.481Z,23.30
2019-05-09T12:04:50.909Z,23.30
2019-05-09T12:14:58.130Z,23.40
2019-05-09T12:25:03.567Z,23.40
2019-05-09T12:35:09.063Z,23.40
2019-05-09T12:45:14.840Z,23.40
2019-05-09T12:55:22.421Z,23.50
2019-05-09T13:05:27.994Z,23.50
2019-05-09T13:15:41.614Z,23.60
2019-05-09T13:25:50.232Z,23.60
2019-05-09T13:35:54.438Z,23.60
2019-05-09T13:45:59.851Z,23.60
2019-05-09T13:56:05.288Z,23.60
2019-05-09T14:06:10.709Z,23.60
2019-05-09T14:16:21.740Z,23.60
2019-05-09T14:26:24.098Z,23.50
2019-05-09T14:36:29.727Z,23.50
2019-05-09T14:46:35.394Z,23.50
2019-05-09T14:56:42.584Z,23.50
2019-05-09T15:06:49.243Z,23.50
2019-05-09T15:16:57.444Z,23.40
2019-05-09T15:27:03.187Z,23.60
2019-05-09T15:37:08.940Z,23.80
2019-05-09T15:47:19.643Z,23.90
2019-05-09T15:57:27.524Z,24.00
2019-05-09T16:07:32.897Z,24.10
2019-05-09T16:17:39.311Z,24.30
2019-05-09T16:27:45.164Z,24.20
2019-05-09T16:38:01.713Z,24.10
2019-05-09T16:47:58.346Z,24.10
2019-05-09T16:58:04.845Z,24.00
2019-05-09T17:08:10.675Z,23.90
2019-05-09T17:18:18.643Z,23.90
2019-05-09T17:28:23.906Z,24.10
2019-05-09T17:38:30.335Z,24.20
2019-05-09T17:48:38.434Z,24.30
2019-05-09T17:58:44.435Z,24.40
2019-05-09T18:08:51.243Z,24.40
2019-05-09T18:18:58.719Z,24.30
2019-05-09T18:29:07.391Z,24.40
2019-05-09T18:39:13.816Z,24.50
2019-05-09T18:49:19.323Z,24.50
2019-05-09T18:59:24.947Z,24.60
2019-05-09T19:09:30.322Z,24.40
2019-05-09T19:19:48.350Z,24.30
2019-05-09T19:29:53.850Z,24.20
2019-05-09T19:39:59.327Z,24.20
2019-05-09T19:50:05.024Z,24.10
2019-05-09T20:00:12.131Z,24.10
2019-05-09T20:10:35.415Z,24.00
2019-05-09T20:20:43.644Z,24.00
2019-05-09T20:30:49.027Z,24.00
2019-05-09T20:40:54.612Z,23.90
2019-05-09T20:51:04.415Z,23.80
2019-05-09T21:01:11.725Z,23.80
2019-05-09T21:11:17.343Z,23.70
2019-05-09T21:21:22.940Z,23.70
2019-05-09T21:31:28.671Z,23.60
2019-05-09T21:41:34.054Z,23.70
2019-05-09T21:51:39.513Z,23.60
2019-05-09T22:01:45.029Z,23.60
2019-05-09T22:11:51.999Z,23.50
2019-05-09T22:21:57.969Z,23.50
2019-05-09T22:32:03.484Z,23.40
2019-05-09T22:42:08.942Z,23.40
2019-05-09T22:52:15.696Z,23.40
2019-05-09T23:02:21.645Z,23.50
2019-05-09T23:12:27.288Z,23.60
2019-05-09T23:22:34.380Z,23.70
2019-05-09T23:32:43.503Z,23.70
2019-05-09T23:42:49.121Z,23.70
2019-05-09T23:52:54.555Z,23.60
